CMB814 Details

Departure: RAF Mildenhall (EGUN)
Arrival: Joint Base McGuire Dix Lakehurst (KWRI) at N/A
Notes: USTRANSCOM CONTRACT FLIGHT


Current Weather Information
EGUN 190556Z 18006KT 9999 CLR 09/09 A2944 RMK AO2A PRESFR SLP973 T00880088 10101 20088 $
KWRI 190556Z AUTO 00000KT 10SM CLR 03/02 A3004 RMK AO2 SLP173 T00320019 10086 20030 50005